createdAt,value
2019-05-23T00:00:56.574Z,22.60
2019-05-23T00:03:30.729Z,22.70
2019-05-23T00:06:04.260Z,22.70
2019-05-23T00:08:34.097Z,22.60
2019-05-23T00:11:22.015Z,22.70
2019-05-23T00:14:00.286Z,22.70
2019-05-23T00:16:30.896Z,22.60
2019-05-23T00:19:00.412Z,22.60
2019-05-23T00:21:30.640Z,22.60
2019-05-23T00:24:00.696Z,22.60
2019-05-23T00:26:31.235Z,22.60
2019-05-23T00:29:10.128Z,22.60
2019-05-23T00:31:54.051Z,22.60
2019-05-23T00:34:23.292Z,22.60
2019-05-23T00:36:54.521Z,22.60
2019-05-23T00:39:24.136Z,22.60
2019-05-23T00:41:54.769Z,22.60
2019-05-23T00:44:24.487Z,22.60
2019-05-23T00:46:53.842Z,22.50
2019-05-23T00:49:24.596Z,22.60
2019-05-23T00:51:54.434Z,22.60
2019-05-23T00:54:24.248Z,22.60
2019-05-23T00:56:54.758Z,22.60
2019-05-23T00:59:27.580Z,22.60
2019-05-23T01:01:54.584Z,22.50
2019-05-23T01:04:24.108Z,22.50
2019-05-23T01:06:53.853Z,22.50
2019-05-23T01:09:25.168Z,22.50
2019-05-23T01:11:55.321Z,22.50
2019-05-23T01:14:24.845Z,22.50
2019-05-23T01:16:54.377Z,22.50
2019-05-23T01:19:24.096Z,22.50
2019-05-23T01:21:59.108Z,22.50
2019-05-23T01:24:37.324Z,22.50
2019-05-23T01:27:07.042Z,22.50
2019-05-23T01:29:39.563Z,22.50
2019-05-23T01:32:37.307Z,22.50
2019-05-23T01:35:09.470Z,22.50
2019-05-23T01:37:41.766Z,22.50
2019-05-23T01:40:12.904Z,22.50
2019-05-23T01:42:42.122Z,22.50
2019-05-23T01:45:12.205Z,22.50
2019-05-23T01:47:42.547Z,22.40
2019-05-23T01:50:12.865Z,22.50
2019-05-23T01:52:42.500Z,22.50
2019-05-23T01:55:12.773Z,22.50
2019-05-23T01:57:41.812Z,22.50
2019-05-23T02:00:12.860Z,22.40
2019-05-23T02:02:42.756Z,22.40
2019-05-23T02:05:12.675Z,22.40
2019-05-23T02:07:41.604Z,22.40
2019-05-23T02:10:12.396Z,22.40
2019-05-23T02:12:42.429Z,22.40
2019-05-23T02:15:11.971Z,22.40
2019-05-23T02:17:41.567Z,22.40
2019-05-23T02:20:13.992Z,22.40
2019-05-23T02:22:44.879Z,22.40
2019-05-23T02:25:16.697Z,22.40
2019-05-23T02:27:47.440Z,22.40
2019-05-23T02:30:34.290Z,22.40
2019-05-23T02:32:52.642Z,22.40
2019-05-23T02:35:22.548Z,22.40
2019-05-23T02:38:22.954Z,22.40
2019-05-23T02:41:02.441Z,22.40
2019-05-23T02:43:32.731Z,22.40
2019-05-23T02:46:07.269Z,22.40
2019-05-23T02:48:42.929Z,22.40
2019-05-23T02:51:21.737Z,22.40
2019-05-23T02:53:55.811Z,22.40
2019-05-23T02:56:25.321Z,22.30
2019-05-23T02:59:29.060Z,22.40
2019-05-23T03:02:43.517Z,22.40
2019-05-23T03:05:14.442Z,22.40
2019-05-23T03:07:44.447Z,22.30
2019-05-23T03:10:15.808Z,22.30
2019-05-23T03:12:46.259Z,22.30
2019-05-23T03:15:16.930Z,22.30
2019-05-23T03:17:51.473Z,22.30
2019-05-23T03:20:21.349Z,22.30
2019-05-23T03:23:12.287Z,22.30
2019-05-23T03:26:19.781Z,22.30
2019-05-23T03:28:49.583Z,22.30
2019-05-23T03:31:31.441Z,22.30
2019-05-23T03:34:00.152Z,22.30
2019-05-23T03:36:30.261Z,22.30
2019-05-23T03:38:59.285Z,22.30
2019-05-23T03:41:30.297Z,22.30
2019-05-23T03:44:01.469Z,22.30
2019-05-23T03:46:52.511Z,22.30
2019-05-23T03:49:21.834Z,22.30
2019-05-23T03:51:51.109Z,22.30
2019-05-23T03:54:20.903Z,22.30
2019-05-23T03:56:50.135Z,22.30
2019-05-23T03:59:20.220Z,22.30
2019-05-23T04:01:51.793Z,22.30
2019-05-23T04:04:21.785Z,22.30
2019-05-23T04:06:51.400Z,22.30
2019-05-23T04:09:20.442Z,22.30
2019-05-23T04:11:49.478Z,22.30
2019-05-23T04:14:19.271Z,22.20
2019-05-23T04:16:48.887Z,22.20
2019-05-23T04:19:18.101Z,22.20
2019-05-23T04:21:47.135Z,22.20
2019-05-23T04:24:16.645Z,22.20
2019-05-23T04:26:46.086Z,22.20
2019-05-23T04:29:15.751Z,22.20
2019-05-23T04:31:45.188Z,22.20
2019-05-23T04:34:14.216Z,22.20
2019-05-23T04:36:43.264Z,22.20
2019-05-23T04:39:13.106Z,22.20
2019-05-23T04:41:42.157Z,22.20
2019-05-23T04:44:11.460Z,22.20
2019-05-23T04:46:40.602Z,22.20
2019-05-23T04:49:10.315Z,22.20
2019-05-23T04:51:39.841Z,22.20
2019-05-23T04:54:08.958Z,22.20
2019-05-23T04:56:38.010Z,22.20
2019-05-23T04:59:07.311Z,22.20
2019-05-23T05:01:37.246Z,22.20
2019-05-23T05:04:07.109Z,22.20
2019-05-23T05:06:36.355Z,22.20
2019-05-23T05:09:08.676Z,22.20
2019-05-23T05:11:37.632Z,22.20
2019-05-23T05:14:06.958Z,22.20
2019-05-23T05:16:35.908Z,22.20
2019-05-23T05:19:06.015Z,22.20
2019-05-23T05:21:35.721Z,22.20
2019-05-23T05:24:04.867Z,22.10
2019-05-23T05:26:34.225Z,22.20
2019-05-23T05:29:03.629Z,22.10
2019-05-23T05:31:32.589Z,22.20
2019-05-23T05:34:01.638Z,22.10
2019-05-23T05:36:30.950Z,22.20
2019-05-23T05:38:59.897Z,22.20
2019-05-23T05:41:28.946Z,22.10
2019-05-23T05:43:58.444Z,22.10
2019-05-23T05:46:28.161Z,22.20
2019-05-23T05:48:57.524Z,22.10
2019-05-23T05:51:28.053Z,22.10
2019-05-23T05:54:16.173Z,22.10
2019-05-23T05:56:45.078Z,22.10
2019-05-23T05:59:14.105Z,22.10
2019-05-23T06:01:43.602Z,22.10
2019-05-23T06:04:13.104Z,22.10
2019-05-23T06:06:50.136Z,22.10
2019-05-23T06:09:25.166Z,22.10
2019-05-23T06:11:54.192Z,22.10
2019-05-23T06:14:23.375Z,22.10
2019-05-23T06:16:53.973Z,22.10
2019-05-23T06:19:23.216Z,22.10
2019-05-23T06:21:52.429Z,22.10
2019-05-23T06:24:39.270Z,22.10
2019-05-23T06:26:52.386Z,22.10
2019-05-23T06:29:21.632Z,22.10
2019-05-23T06:31:51.034Z,22.10
2019-05-23T06:34:20.074Z,22.10
2019-05-23T06:36:49.104Z,22.10
2019-05-23T06:39:18.093Z,22.10
2019-05-23T06:41:47.200Z,22.10
2019-05-23T06:44:17.172Z,22.10
2019-05-23T06:46:46.472Z,22.10
2019-05-23T06:49:15.496Z,22.10
2019-05-23T06:51:44.465Z,22.10
2019-05-23T06:54:13.501Z,22.10
2019-05-23T06:56:42.648Z,22.10
2019-05-23T06:59:12.014Z,22.10
2019-05-23T07:01:41.736Z,22.10
2019-05-23T07:04:10.756Z,22.10
2019-05-23T07:06:39.797Z,22.10
2019-05-23T07:09:12.638Z,22.10
2019-05-23T07:11:41.707Z,22.10
2019-05-23T07:14:11.815Z,22.10
2019-05-23T07:16:40.964Z,22.10
2019-05-23T07:19:10.289Z,22.10
2019-05-23T07:21:40.105Z,22.10
2019-05-23T07:24:09.314Z,22.10
2019-05-23T07:26:38.707Z,22.10
2019-05-23T07:29:08.614Z,22.10
2019-05-23T07:31:38.053Z,22.10
2019-05-23T07:34:07.289Z,22.10
2019-05-23T07:36:36.644Z,22.10
2019-05-23T07:39:11.315Z,22.10
2019-05-23T07:41:39.681Z,22.10
2019-05-23T07:44:08.727Z,22.10
2019-05-23T07:46:38.508Z,22.10
2019-05-23T07:49:07.623Z,22.10
2019-05-23T07:51:36.823Z,22.10
2019-05-23T07:54:28.564Z,22.10
2019-05-23T07:56:59.276Z,22.10
2019-05-23T07:59:28.313Z,22.10
2019-05-23T08:02:11.321Z,22.10
2019-05-23T08:04:40.726Z,22.10
2019-05-23T08:07:11.292Z,22.10
2019-05-23T08:09:40.941Z,22.10
2019-05-23T08:12:09.994Z,22.10
2019-05-23T08:14:39.145Z,22.10
2019-05-23T08:17:08.664Z,22.10
2019-05-23T08:19:49.208Z,22.10
2019-05-23T08:22:08.437Z,22.10
2019-05-23T08:24:37.565Z,22.10
2019-05-23T08:27:07.285Z,22.10
2019-05-23T08:29:36.490Z,22.10
2019-05-23T08:32:06.645Z,22.10
2019-05-23T08:34:41.570Z,22.10
2019-05-23T08:37:07.794Z,22.10
2019-05-23T08:39:38.181Z,22.10
2019-05-23T08:42:08.416Z,22.10
2019-05-23T08:44:37.902Z,22.10
2019-05-23T08:47:08.277Z,22.10
2019-05-23T08:49:37.715Z,22.10
2019-05-23T08:52:06.821Z,22.10
2019-05-23T08:54:36.442Z,22.10
2019-05-23T08:57:06.893Z,22.10
2019-05-23T08:59:36.518Z,22.10
2019-05-23T09:02:07.556Z,22.10
2019-05-23T09:04:36.605Z,22.10
2019-05-23T09:07:05.564Z,22.10
2019-05-23T09:09:34.394Z,22.10
2019-05-23T09:12:04.294Z,22.10
2019-05-23T09:14:33.336Z,22.10
2019-05-23T09:17:02.467Z,22.10
2019-05-23T09:19:31.508Z,22.10
2019-05-23T09:22:00.545Z,22.10
2019-05-23T09:24:29.865Z,22.10
2019-05-23T09:26:58.850Z,22.10
2019-05-23T09:29:28.457Z,22.10
2019-05-23T09:31:57.807Z,22.10
2019-05-23T09:34:26.881Z,22.10
2019-05-23T09:36:55.941Z,22.10
2019-05-23T09:39:25.132Z,22.10
2019-05-23T09:41:54.238Z,22.10
2019-05-23T09:44:23.320Z,22.10
2019-05-23T09:46:52.473Z,22.10
2019-05-23T09:49:21.984Z,22.10
2019-05-23T09:51:54.821Z,22.10
2019-05-23T09:54:22.011Z,22.10
2019-05-23T09:56:52.114Z,22.10
2019-05-23T09:59:21.156Z,22.10
2019-05-23T10:01:50.575Z,22.10
2019-05-23T10:04:19.607Z,22.10
2019-05-23T10:06:48.657Z,22.10
2019-05-23T10:09:17.650Z,22.10
2019-05-23T10:11:46.610Z,22.10
2019-05-23T10:14:20.951Z,22.10
2019-05-23T10:16:49.976Z,22.10
2019-05-23T10:19:19.131Z,22.10
2019-05-23T10:21:48.144Z,22.10
2019-05-23T10:24:17.327Z,22.10
2019-05-23T10:26:46.429Z,22.10
2019-05-23T10:29:15.458Z,22.10
2019-05-23T10:31:44.504Z,22.10
2019-05-23T10:34:13.567Z,22.10
2019-05-23T10:36:42.605Z,22.10
2019-05-23T10:39:13.060Z,22.10
2019-05-23T10:41:42.094Z,22.10
2019-05-23T10:44:11.350Z,22.10
2019-05-23T10:46:40.356Z,22.10
2019-05-23T10:49:09.409Z,22.10
2019-05-23T10:51:38.444Z,22.10
2019-05-23T10:54:08.544Z,22.10
2019-05-23T10:56:38.478Z,22.10
2019-05-23T10:59:07.609Z,22.10
2019-05-23T11:01:36.744Z,22.10
2019-05-23T11:04:06.055Z,22.10
2019-05-23T11:06:35.555Z,22.10
2019-05-23T11:09:07.748Z,22.10
2019-05-23T11:11:37.350Z,22.10
2019-05-23T11:14:08.884Z,22.10
2019-05-23T11:16:38.439Z,22.10
2019-05-23T11:19:08.867Z,22.10
2019-05-23T11:21:38.111Z,22.10
2019-05-23T11:24:07.512Z,22.10
2019-05-23T11:26:36.831Z,22.10
2019-05-23T11:29:07.198Z,22.10
2019-05-23T11:31:36.634Z,22.10
2019-05-23T11:34:05.869Z,22.10
2019-05-23T11:36:36.742Z,22.10
2019-05-23T11:39:08.054Z,22.10
2019-05-23T11:41:37.103Z,22.10
2019-05-23T11:44:06.650Z,22.10
2019-05-23T11:46:36.474Z,22.10
2019-05-23T11:49:06.187Z,22.10
2019-05-23T11:51:36.644Z,22.10
2019-05-23T11:54:08.892Z,22.10
2019-05-23T11:56:38.545Z,22.10
2019-05-23T11:59:07.644Z,22.10
2019-05-23T12:01:45.693Z,22.10
2019-05-23T12:04:16.664Z,22.20
2019-05-23T12:06:58.827Z,22.20
2019-05-23T12:09:28.112Z,22.20
2019-05-23T12:11:57.075Z,22.20
2019-05-23T12:14:26.198Z,22.20
2019-05-23T12:16:56.932Z,22.20
2019-05-23T12:19:25.983Z,22.20
2019-05-23T12:21:55.299Z,22.20
2019-05-23T12:24:24.506Z,22.20
2019-05-23T12:26:53.640Z,22.20
2019-05-23T12:29:22.696Z,22.20
2019-05-23T12:31:51.723Z,22.20
2019-05-23T12:34:20.763Z,22.30
2019-05-23T12:37:24.109Z,22.30
2019-05-23T12:39:40.358Z,22.30
2019-05-23T12:42:09.459Z,22.30
2019-05-23T12:44:38.617Z,22.30
2019-05-23T12:47:11.448Z,22.30
2019-05-23T12:49:47.982Z,22.30
2019-05-23T12:52:16.929Z,22.30
2019-05-23T12:54:46.737Z,22.30
2019-05-23T12:57:15.942Z,22.40
2019-05-23T12:59:45.354Z,22.40
2019-05-23T13:02:19.726Z,22.40
2019-05-23T13:04:48.950Z,22.40
2019-05-23T13:07:34.540Z,22.40
2019-05-23T13:09:48.944Z,22.40
2019-05-23T13:12:18.185Z,22.40
2019-05-23T13:14:47.400Z,22.40
2019-05-23T13:17:16.434Z,22.40
2019-05-23T13:19:45.829Z,22.50
2019-05-23T13:22:15.053Z,22.50
2019-05-23T13:24:52.824Z,22.50
2019-05-23T13:27:15.265Z,22.50
2019-05-23T13:29:44.593Z,22.50
2019-05-23T13:32:13.702Z,22.50
2019-05-23T13:34:42.735Z,22.50
2019-05-23T13:37:17.082Z,22.50
2019-05-23T13:39:46.098Z,22.60
2019-05-23T13:42:15.224Z,22.60
2019-05-23T13:44:44.529Z,22.60
2019-05-23T13:47:13.534Z,22.60
2019-05-23T13:49:42.770Z,22.60
2019-05-23T13:52:11.881Z,22.60
2019-05-23T13:54:41.185Z,22.70
2019-05-23T13:57:11.828Z,22.60
2019-05-23T13:59:40.861Z,22.70
2019-05-23T14:02:10.091Z,22.70
2019-05-23T14:04:39.398Z,22.70
2019-05-23T14:07:10.658Z,22.70
2019-05-23T14:09:40.495Z,22.80
2019-05-23T14:12:25.333Z,22.70
2019-05-23T14:14:40.549Z,22.80
2019-05-23T14:17:33.465Z,22.80
2019-05-23T14:20:02.693Z,22.80
2019-05-23T14:22:33.370Z,22.80
2019-05-23T14:25:02.523Z,22.80
2019-05-23T14:28:03.728Z,22.90
2019-05-23T14:30:57.702Z,22.90
2019-05-23T14:33:55.092Z,22.90
2019-05-23T14:36:58.293Z,22.80
2019-05-23T14:39:38.243Z,22.90
2019-05-23T14:42:25.252Z,22.90
2019-05-23T14:44:54.479Z,22.90
2019-05-23T14:47:34.018Z,22.90
2019-05-23T14:50:26.071Z,22.90
2019-05-23T14:52:55.759Z,22.90
2019-05-23T14:55:25.381Z,22.90
2019-05-23T14:57:54.528Z,22.90
2019-05-23T15:00:25.430Z,23.00
2019-05-23T15:02:55.039Z,23.00
2019-05-23T15:05:25.147Z,23.00
2019-05-23T15:07:54.295Z,23.00
2019-05-23T15:10:24.282Z,23.00
2019-05-23T15:12:53.416Z,23.00
2019-05-23T15:15:22.905Z,23.00
2019-05-23T15:17:51.913Z,23.00
2019-05-23T15:20:21.234Z,23.00
2019-05-23T15:22:50.194Z,23.10
2019-05-23T15:25:19.395Z,23.00
2019-05-23T15:27:48.448Z,23.10
2019-05-23T15:30:18.388Z,23.10
2019-05-23T15:32:47.516Z,23.10
2019-05-23T15:35:17.041Z,23.10
2019-05-23T15:37:46.291Z,23.10
2019-05-23T15:40:15.616Z,23.10
2019-05-23T15:42:44.685Z,23.10
2019-05-23T15:45:13.832Z,23.10
2019-05-23T15:47:43.184Z,23.10
2019-05-23T15:50:14.845Z,23.10
2019-05-23T15:53:05.678Z,23.10
2019-05-23T15:55:53.752Z,23.10
2019-05-23T15:58:40.473Z,23.20
2019-05-23T16:01:12.829Z,23.20
2019-05-23T16:03:50.807Z,23.10
2019-05-23T16:06:21.570Z,23.20
2019-05-23T16:08:50.806Z,23.20
2019-05-23T16:11:20.195Z,23.20
2019-05-23T16:13:49.314Z,23.20
2019-05-23T16:16:18.437Z,23.20
2019-05-23T16:18:48.332Z,23.20
2019-05-23T16:21:18.782Z,23.20
2019-05-23T16:23:47.780Z,23.20
2019-05-23T16:26:17.577Z,23.30
2019-05-23T16:28:46.699Z,23.30
2019-05-23T16:31:16.021Z,23.20
2019-05-23T16:33:45.216Z,23.30
2019-05-23T16:36:14.557Z,23.30
2019-05-23T16:38:43.593Z,23.30
2019-05-23T16:41:12.658Z,23.30
2019-05-23T16:43:41.818Z,23.30
2019-05-23T16:46:10.856Z,23.30
2019-05-23T16:48:39.872Z,23.30
2019-05-23T16:51:08.908Z,23.30
2019-05-23T16:53:38.609Z,23.30
2019-05-23T16:56:15.694Z,23.30
2019-05-23T16:59:05.416Z,23.30
2019-05-23T17:01:55.506Z,23.30
2019-05-23T17:04:27.233Z,23.30
2019-05-23T17:07:04.061Z,23.30
2019-05-23T17:10:07.424Z,23.30
2019-05-23T17:12:40.820Z,23.30
2019-05-23T17:15:32.188Z,23.30
2019-05-23T17:18:14.894Z,23.30
2019-05-23T17:20:56.949Z,23.30
2019-05-23T17:23:54.265Z,23.30
2019-05-23T17:26:29.864Z,23.30
2019-05-23T17:28:59.356Z,23.30
2019-05-23T17:31:33.073Z,23.30
2019-05-23T17:34:02.566Z,23.30
2019-05-23T17:36:31.642Z,23.30
2019-05-23T17:39:00.850Z,23.30
2019-05-23T17:41:30.157Z,23.30
2019-05-23T17:43:59.134Z,23.30
2019-05-23T17:46:28.357Z,23.30
2019-05-23T17:48:57.283Z,23.30
2019-05-23T17:51:26.402Z,23.30
2019-05-23T17:53:55.332Z,23.30
2019-05-23T17:56:24.324Z,23.30
2019-05-23T17:58:53.431Z,23.30
2019-05-23T18:01:24.202Z,23.30
2019-05-23T18:03:53.260Z,23.30
2019-05-23T18:06:22.982Z,23.30
2019-05-23T18:08:52.513Z,23.30
2019-05-23T18:11:21.540Z,23.30
2019-05-23T18:13:51.173Z,23.30
2019-05-23T18:16:20.220Z,23.30
2019-05-23T18:18:49.816Z,23.30
2019-05-23T18:21:19.430Z,23.20
2019-05-23T18:23:48.931Z,23.20
2019-05-23T18:26:18.157Z,23.20
2019-05-23T18:28:47.128Z,23.20
2019-05-23T18:31:21.860Z,23.20
2019-05-23T18:33:51.293Z,23.20
2019-05-23T18:36:20.553Z,23.10
2019-05-23T18:38:49.671Z,23.10
2019-05-23T18:41:19.122Z,23.10
2019-05-23T18:43:48.239Z,23.10
2019-05-23T18:46:31.635Z,23.10
2019-05-23T18:49:01.265Z,23.10
2019-05-23T18:51:30.760Z,23.10
2019-05-23T18:54:00.007Z,23.10
2019-05-23T18:56:28.951Z,23.10
2019-05-23T18:58:57.982Z,23.10
2019-05-23T19:01:27.289Z,23.10
2019-05-23T19:03:57.093Z,23.10
2019-05-23T19:06:26.201Z,23.10
2019-05-23T19:08:55.916Z,23.10
2019-05-23T19:11:25.505Z,23.10
2019-05-23T19:13:54.756Z,23.00
2019-05-23T19:16:24.147Z,23.00
2019-05-23T19:18:53.196Z,23.00
2019-05-23T19:21:22.452Z,23.00
2019-05-23T19:23:51.586Z,23.00
2019-05-23T19:26:21.883Z,23.00
2019-05-23T19:28:50.922Z,23.00
2019-05-23T19:31:20.605Z,23.00
2019-05-23T19:33:49.676Z,23.00
2019-05-23T19:36:19.069Z,23.00
2019-05-23T19:38:48.130Z,23.00
2019-05-23T19:41:17.169Z,23.00
2019-05-23T19:43:48.179Z,23.00
2019-05-23T19:46:20.083Z,23.00
2019-05-23T19:48:51.036Z,23.00
2019-05-23T19:51:21.203Z,23.00
2019-05-23T19:53:51.432Z,23.00
2019-05-23T19:56:21.755Z,23.00
2019-05-23T19:58:51.999Z,23.00
2019-05-23T20:01:22.643Z,23.00
2019-05-23T20:03:52.830Z,23.00
2019-05-23T20:06:23.673Z,23.00
2019-05-23T20:08:54.019Z,23.00
2019-05-23T20:11:23.948Z,23.00
2019-05-23T20:13:53.886Z,23.00
2019-05-23T20:16:23.758Z,23.00
2019-05-23T20:18:53.918Z,23.10
2019-05-23T20:21:23.851Z,23.10
2019-05-23T20:23:54.457Z,23.00
2019-05-23T20:26:24.350Z,23.10
2019-05-23T20:28:54.690Z,23.00
2019-05-23T20:31:23.849Z,23.10
2019-05-23T20:33:53.194Z,23.10
2019-05-23T20:36:22.328Z,23.10
2019-05-23T20:38:51.278Z,23.10
2019-05-23T20:41:20.600Z,23.10
2019-05-23T20:43:49.570Z,23.10
2019-05-23T20:46:19.010Z,23.10
2019-05-23T20:48:47.957Z,23.10
2019-05-23T20:51:17.267Z,23.10
2019-05-23T20:53:47.326Z,23.10
2019-05-23T20:56:17.183Z,23.10
2019-05-23T20:58:47.149Z,23.10
2019-05-23T21:01:23.695Z,23.10
2019-05-23T21:03:55.028Z,23.10
2019-05-23T21:06:24.229Z,23.10
2019-05-23T21:08:53.239Z,23.10
2019-05-23T21:11:23.499Z,23.10
2019-05-23T21:13:52.924Z,23.10
2019-05-23T21:16:22.815Z,23.10
2019-05-23T21:18:52.988Z,23.10
2019-05-23T21:21:23.013Z,23.10
2019-05-23T21:23:56.660Z,23.10
2019-05-23T21:26:24.900Z,23.20
2019-05-23T21:28:54.257Z,23.10
2019-05-23T21:31:24.932Z,23.10
2019-05-23T21:33:53.888Z,23.10
2019-05-23T21:36:22.853Z,23.20
2019-05-23T21:38:51.896Z,23.10
2019-05-23T21:41:20.920Z,23.20
2019-05-23T21:43:51.621Z,23.20
2019-05-23T21:46:20.826Z,23.20
2019-05-23T21:48:49.792Z,23.10
2019-05-23T21:51:18.832Z,23.10
2019-05-23T21:53:47.873Z,23.20
2019-05-23T21:56:16.941Z,23.20
2019-05-23T21:58:45.988Z,23.10
2019-05-23T22:01:53.955Z,23.10
2019-05-23T22:04:45.068Z,23.10
2019-05-23T22:07:14.158Z,23.10
2019-05-23T22:09:43.184Z,23.20
2019-05-23T22:12:14.551Z,23.20
2019-05-23T22:14:44.252Z,23.20
2019-05-23T22:17:13.351Z,23.20
2019-05-23T22:19:42.394Z,23.20
2019-05-23T22:22:11.914Z,23.20
2019-05-23T22:24:41.049Z,23.20
2019-05-23T22:27:10.669Z,23.20
2019-05-23T22:29:39.796Z,23.20
2019-05-23T22:32:10.048Z,23.20
2019-05-23T22:34:53.155Z,23.20
2019-05-23T22:37:26.597Z,23.30
2019-05-23T22:39:55.641Z,23.30
2019-05-23T22:42:26.542Z,23.30
2019-05-23T22:44:55.500Z,23.20
2019-05-23T22:47:25.428Z,23.20
2019-05-23T22:49:54.432Z,23.30
2019-05-23T22:52:23.303Z,23.20
2019-05-23T22:54:52.316Z,23.30
2019-05-23T22:57:21.492Z,23.30
2019-05-23T22:59:50.512Z,23.30
2019-05-23T23:02:19.609Z,23.20
2019-05-23T23:04:48.631Z,23.30
2019-05-23T23:07:18.247Z,23.30
2019-05-23T23:09:47.166Z,23.30
2019-05-23T23:12:16.229Z,23.20
2019-05-23T23:14:45.165Z,23.30
2019-05-23T23:17:14.768Z,23.30
2019-05-23T23:19:43.766Z,23.30
2019-05-23T23:22:13.379Z,23.30
2019-05-23T23:24:42.284Z,23.30
2019-05-23T23:27:11.300Z,23.30
2019-05-23T23:29:40.227Z,23.30
2019-05-23T23:32:09.845Z,23.30
2019-05-23T23:34:38.872Z,23.30
2019-05-23T23:37:08.706Z,23.30
2019-05-23T23:39:37.757Z,23.30
2019-05-23T23:42:08.061Z,23.20
2019-05-23T23:44:36.209Z,23.30
2019-05-23T23:47:23.694Z,23.20
2019-05-23T23:50:10.612Z,23.20
2019-05-23T23:52:57.645Z,23.20
2019-05-23T23:55:44.885Z,23.30
2019-05-23T23:58:13.081Z,23.20
